createdAt,value
2023-04-15T00:00:17.889Z,100.00
2023-04-15T00:05:23.934Z,100.00
2023-04-15T00:10:27.922Z,100.00
2023-04-15T00:15:33.199Z,100.00
2023-04-15T00:20:37.283Z,100.00
2023-04-15T00:25:41.812Z,100.00
2023-04-15T00:30:47.462Z,100.00
2023-04-15T00:35:51.939Z,100.00
2023-04-15T00:40:56.950Z,100.00
2023-04-15T00:46:04.161Z,100.00
2023-04-15T00:51:08.582Z,100.00
2023-04-15T00:56:13.716Z,100.00
2023-04-15T01:01:22.419Z,100.00
2023-04-15T01:06:27.353Z,100.00
2023-04-15T01:11:33.588Z,100.00
2023-04-15T01:16:41.151Z,100.00
2023-04-15T01:21:45.143Z,100.00
2023-04-15T01:26:51.139Z,100.00
2023-04-15T01:31:56.941Z,100.00
2023-04-15T01:37:21.945Z,100.00
2023-04-15T01:42:29.242Z,100.00
2023-04-15T01:47:35.786Z,100.00
2023-04-15T01:52:41.251Z,100.00
2023-04-15T01:57:47.841Z,100.00
2023-04-15T02:02:53.139Z,100.00
2023-04-15T02:07:59.042Z,100.00
2023-04-15T02:13:05.775Z,100.00
2023-04-15T02:18:10.965Z,100.00
2023-04-15T02:23:16.166Z,100.00
2023-04-15T02:28:23.912Z,100.00
2023-04-15T02:33:29.173Z,100.00
2023-04-15T02:38:34.390Z,100.00
2023-04-15T02:43:41.232Z,100.00
2023-04-15T02:48:47.946Z,100.00
2023-04-15T02:53:53.179Z,100.00
2023-04-15T02:59:00.135Z,100.00
2023-04-15T03:04:05.730Z,100.00
2023-04-15T03:09:14.180Z,100.00
2023-04-15T03:14:20.821Z,100.00
2023-04-15T03:19:29.160Z,100.00
2023-04-15T03:24:40.155Z,100.00
2023-04-15T03:29:46.873Z,100.00
2023-04-15T03:34:54.674Z,100.00
2023-04-15T03:39:59.928Z,100.00
2023-04-15T03:45:07.746Z,100.00
2023-04-15T03:50:13.033Z,100.00
2023-04-15T03:55:18.426Z,100.00
2023-04-15T04:00:25.517Z,100.00
2023-04-15T04:05:30.925Z,100.00
2023-04-15T04:10:36.124Z,100.00
2023-04-15T04:15:42.869Z,100.00
2023-04-15T04:20:49.027Z,100.00
2023-04-15T04:25:54.341Z,100.00
2023-04-15T04:36:30.373Z,100.00
2023-04-15T04:41:37.273Z,100.00
2023-04-15T04:46:44.153Z,100.00
2023-04-15T04:51:49.477Z,100.00
2023-04-15T04:56:54.663Z,100.00
2023-04-15T05:02:01.535Z,100.00
2023-04-15T05:07:07.167Z,100.00
2023-04-15T05:12:15.099Z,100.00
2023-04-15T05:17:22.075Z,100.00
2023-04-15T05:22:27.520Z,100.00
2023-04-15T05:27:32.737Z,100.00
2023-04-15T05:32:39.321Z,100.00
2023-04-15T05:37:44.705Z,100.00
2023-04-15T05:42:49.894Z,100.00
2023-04-15T05:47:56.815Z,100.00
2023-04-15T05:53:02.144Z,100.00
2023-04-15T05:58:07.422Z,100.00
2023-04-15T06:03:14.130Z,100.00
2023-04-15T06:08:19.493Z,100.00
2023-04-15T06:18:54.702Z,100.00
2023-04-15T06:24:01.576Z,100.00
2023-04-15T06:29:06.842Z,100.00
2023-04-15T06:34:13.471Z,100.00
2023-04-15T06:39:18.762Z,100.00
2023-04-15T06:44:23.996Z,100.00
2023-04-15T06:49:30.719Z,96.60
2023-04-15T06:54:35.998Z,100.00
2023-04-15T06:59:41.373Z,94.59
2023-04-15T07:04:48.555Z,100.00
2023-04-15T07:09:53.829Z,91.01
2023-04-15T07:14:59.076Z,84.36
2023-04-15T07:20:06.187Z,88.34
2023-04-15T07:25:11.431Z,87.04
2023-04-15T07:30:16.991Z,81.35
2023-04-15T07:35:23.818Z,61.22
2023-04-15T07:40:32.217Z,56.05
2023-04-15T07:46:02.908Z,55.13
2023-04-15T07:51:10.905Z,51.17
2023-04-15T07:56:16.249Z,54.39
2023-04-15T08:01:21.649Z,51.34
2023-04-15T08:06:29.005Z,55.56
2023-04-15T08:11:33.888Z,52.02
2023-04-15T08:16:39.331Z,51.40
2023-04-15T08:21:49.391Z,48.63
2023-04-15T08:26:54.645Z,53.49
2023-04-15T08:32:01.023Z,51.65
2023-04-15T08:37:07.654Z,45.47
2023-04-15T08:42:17.072Z,46.35
2023-04-15T08:47:25.118Z,42.95
2023-04-15T08:52:32.511Z,41.81
2023-04-15T08:57:39.986Z,42.00
2023-04-15T09:02:45.580Z,39.27
2023-04-15T09:07:53.335Z,38.11
2023-04-15T09:12:58.874Z,43.58
2023-04-15T09:18:04.295Z,41.69
2023-04-15T09:23:17.773Z,42.91
2023-04-15T09:28:27.274Z,38.86
2023-04-15T09:33:32.879Z,38.00
2023-04-15T09:38:56.431Z,37.39
2023-04-15T09:44:02.005Z,43.57
2023-04-15T09:49:10.341Z,35.99
2023-04-15T09:54:21.023Z,35.62
2023-04-15T09:59:26.330Z,36.38
2023-04-15T10:04:33.228Z,39.77
2023-04-15T10:09:40.319Z,34.88
2023-04-15T10:14:45.765Z,37.81
2023-04-15T10:19:54.247Z,36.96
2023-04-15T10:25:01.311Z,40.39
2023-04-15T10:30:06.859Z,40.16
2023-04-15T10:35:12.692Z,42.26
2023-04-15T10:40:31.618Z,33.95
2023-04-15T10:45:38.373Z,34.20
2023-04-15T10:50:57.908Z,35.59
2023-04-15T10:56:06.057Z,35.19
2023-04-15T11:01:12.429Z,38.60
2023-04-15T11:06:17.699Z,39.50
2023-04-15T11:11:24.404Z,40.52
2023-04-15T11:16:29.667Z,37.63
2023-04-15T11:21:35.812Z,33.54
2023-04-15T11:26:42.319Z,34.69
2023-04-15T11:31:49.870Z,34.91
2023-04-15T11:36:58.402Z,33.58
2023-04-15T11:42:05.119Z,33.85
2023-04-15T11:47:24.278Z,37.65
2023-04-15T11:52:29.638Z,33.73
2023-04-15T11:57:37.672Z,33.27
2023-04-15T12:02:41.635Z,32.89
2023-04-15T12:08:00.703Z,31.99
2023-04-15T12:13:09.649Z,39.57
2023-04-15T12:18:19.281Z,36.03
2023-04-15T12:23:23.245Z,35.23
2023-04-15T12:28:32.033Z,34.07
2023-04-15T12:33:36.253Z,33.18
2023-04-15T12:38:40.296Z,35.63
2023-04-15T12:43:47.192Z,35.32
2023-04-15T12:48:52.048Z,33.26
2023-04-15T12:53:55.968Z,33.99
2023-04-15T12:59:01.288Z,34.19
2023-04-15T13:04:05.927Z,37.40
2023-04-15T13:09:10.384Z,34.35
2023-04-15T13:14:15.971Z,35.71
2023-04-15T13:19:19.836Z,37.75
2023-04-15T13:24:23.755Z,35.72
2023-04-15T13:29:29.025Z,39.72
2023-04-15T13:34:32.965Z,39.86
2023-04-15T13:39:37.068Z,40.81
2023-04-15T13:44:42.326Z,40.10
2023-04-15T13:49:46.367Z,40.60
2023-04-15T13:55:18.298Z,40.37
2023-04-15T14:00:16.318Z,42.31
2023-04-15T14:05:20.511Z,39.53
2023-04-15T14:10:24.541Z,37.09
2023-04-15T14:15:29.822Z,43.55
2023-04-15T14:20:33.713Z,40.96
2023-04-15T14:25:39.285Z,44.03
2023-04-15T14:30:44.723Z,38.00
2023-04-15T14:35:48.660Z,40.05
2023-04-15T14:40:52.621Z,39.16
2023-04-15T14:45:58.102Z,40.36
2023-04-15T14:51:02.266Z,40.05
2023-04-15T14:56:06.689Z,38.38
2023-04-15T15:01:12.470Z,39.40
2023-04-15T15:06:16.496Z,39.68
2023-04-15T15:11:21.047Z,40.10
2023-04-15T15:16:26.871Z,39.65
2023-04-15T15:21:31.267Z,41.10
2023-04-15T15:26:35.266Z,42.18
2023-04-15T15:31:40.609Z,44.73
2023-04-15T15:36:44.497Z,47.42
2023-04-15T15:41:48.790Z,41.86
2023-04-15T15:46:54.173Z,45.15
2023-04-15T15:51:58.190Z,44.92
2023-04-15T15:57:02.271Z,45.25
2023-04-15T16:02:08.582Z,47.53
2023-04-15T16:07:13.134Z,52.44
2023-04-15T16:12:17.109Z,51.88
2023-04-15T16:17:22.499Z,61.21
2023-04-15T16:22:26.883Z,65.98
2023-04-15T16:27:30.920Z,71.49
2023-04-15T16:32:36.195Z,71.93
2023-04-15T16:37:40.166Z,87.77
2023-04-15T16:42:44.518Z,85.36
2023-04-15T16:47:49.850Z,91.51
2023-04-15T16:52:54.132Z,99.42
2023-04-15T16:58:01.485Z,100.00
2023-04-15T17:03:08.909Z,94.35
2023-04-15T17:08:14.296Z,100.00
2023-04-15T17:13:18.281Z,93.94
2023-04-15T17:18:23.645Z,97.06
2023-04-15T17:23:40.712Z,100.00
2023-04-15T17:28:44.751Z,99.95
2023-04-15T17:34:00.836Z,100.00
2023-04-15T17:39:32.208Z,100.00
2023-04-15T17:44:55.971Z,97.61
2023-04-15T17:50:21.116Z,100.00
2023-04-15T17:55:44.854Z,98.00
2023-04-15T18:01:08.606Z,97.36
2023-04-15T18:06:33.790Z,100.00
2023-04-15T18:11:57.853Z,100.00
2023-04-15T18:17:21.735Z,95.88
2023-04-15T18:22:46.859Z,94.39
2023-04-15T18:27:50.943Z,94.03
2023-04-15T18:32:57.616Z,96.43
2023-04-15T18:38:02.989Z,100.00
2023-04-15T18:43:09.455Z,100.00
2023-04-15T18:48:14.315Z,100.00
2023-04-15T18:53:19.716Z,100.00
2023-04-15T18:58:23.783Z,100.00
2023-04-15T19:03:27.810Z,100.00
2023-04-15T19:08:33.656Z,100.00
2023-04-15T19:13:37.529Z,100.00
2023-04-15T19:18:41.403Z,100.00
2023-04-15T19:23:48.164Z,100.00
2023-04-15T19:28:54.923Z,100.00
2023-04-15T19:33:58.785Z,100.00
2023-04-15T19:39:06.208Z,100.00
2023-04-15T19:44:12.838Z,100.00
2023-04-15T19:49:16.969Z,100.00
2023-04-15T19:54:22.808Z,100.00
2023-04-15T19:59:26.865Z,100.00
2023-04-15T20:04:30.785Z,100.00
2023-04-15T20:09:36.234Z,100.00
2023-04-15T20:14:40.245Z,100.00
2023-04-15T20:19:44.157Z,100.00
2023-04-15T20:24:49.407Z,100.00
2023-04-15T20:29:53.401Z,100.00
2023-04-15T20:34:57.386Z,100.00
2023-04-15T20:40:03.100Z,100.00
2023-04-15T20:45:08.451Z,100.00
2023-04-15T20:50:14.551Z,100.00
2023-04-15T20:55:20.055Z,100.00
2023-04-15T21:00:24.072Z,100.00
2023-04-15T21:05:28.189Z,100.00
2023-04-15T21:10:35.370Z,100.00
2023-04-15T21:15:40.198Z,100.00
2023-04-15T21:20:44.171Z,100.00
2023-04-15T21:25:49.567Z,100.00
2023-04-15T21:30:53.458Z,100.00
2023-04-15T21:35:57.395Z,100.00
2023-04-15T21:41:06.517Z,100.00
2023-04-15T21:46:21.340Z,100.00
2023-04-15T21:51:28.782Z,100.00
2023-04-15T21:56:34.128Z,100.00
2023-04-15T22:01:38.270Z,100.00
2023-04-15T22:06:42.229Z,100.00
2023-04-15T22:11:47.498Z,100.00
2023-04-15T22:16:51.640Z,100.00
2023-04-15T22:21:56.421Z,100.00
2023-04-15T22:27:02.794Z,100.00
2023-04-15T22:32:07.135Z,100.00
2023-04-15T22:42:16.925Z,100.00
2023-04-15T22:47:20.970Z,100.00
2023-04-15T22:52:30.704Z,100.00
2023-04-15T22:57:36.689Z,100.00
2023-04-15T23:02:40.723Z,100.00
2023-04-15T23:07:44.836Z,100.00
2023-04-15T23:12:50.128Z,100.00
2023-04-15T23:17:54.155Z,100.00
2023-04-15T23:22:59.659Z,100.00
2023-04-15T23:28:04.972Z,100.00
2023-04-15T23:33:08.889Z,100.00
2023-04-15T23:38:12.783Z,100.00
2023-04-15T23:43:18.142Z,100.00
2023-04-15T23:48:23.681Z,100.00
2023-04-15T23:53:30.725Z,100.00
2023-04-15T23:58:36.078Z,100.00
